Time;durP1;ratioP1;P1;durP2;ratioP2;P2;SDS_P1;SDS_P2;PMS_P1;PMS_P2;Temp;Humidity;BMP_temperature;BMP_pressure;BME280_temperature;BME280_humidity;BME280_pressure;Samples;Min_cycle;Max_cycle;Signal;HPM_P1;HPM_P2
2021/04/07 00:02:02;;;;;;;3.40;2.50;;;;;;;0.76;89.29;98263.28;6116708;22;103096;-76
2021/04/07 00:04:29;;;;;;;2.97;2.37;;;;;;;0.65;89.47;98260.28;6144580;22;103706;-75
2021/04/07 00:06:56;;;;;;;5.47;2.80;;;;;;;0.62;89.45;98258.63;6144166;22;104270;-75
2021/04/07 00:09:25;;;;;;;3.97;2.67;;;;;;;0.66;90.63;98260.19;6144682;22;102945;-75
2021/04/07 00:11:52;;;;;;;3.30;2.90;;;;;;;0.71;89.71;98262.59;6142442;22;103024;-75
2021/04/07 00:14:20;;;;;;;5.40;2.60;;;;;;;0.62;88.87;98268.19;6142286;22;108808;-75
2021/04/07 00:16:47;;;;;;;2.53;2.30;;;;;;;0.69;89.21;98264.44;6143770;22;103191;-75
2021/04/07 00:19:16;;;;;;;3.50;2.50;;;;;;;0.74;89.07;98267.69;6144064;22;102698;-75
2021/04/07 00:21:43;;;;;;;2.63;2.30;;;;;;;0.72;90.45;98274.72;6144640;22;102913;-75
2021/04/07 00:24:11;;;;;;;3.30;2.20;;;;;;;0.70;89.60;98267.00;6142906;22;103735;-75
2021/04/07 00:26:38;;;;;;;3.57;2.60;;;;;;;0.49;89.82;98263.47;6143207;22;105449;-76
2021/04/07 00:29:05;;;;;;;2.93;2.63;;;;;;;0.58;89.49;98268.31;6143968;22;103058;-76
2021/04/07 00:31:33;;;;;;;2.63;2.43;;;;;;;0.71;88.49;98273.84;6145225;22;103352;-76
2021/04/07 00:34:00;;;;;;;4.00;2.83;;;;;;;0.65;87.86;98268.91;6144397;22;103811;-76
2021/04/07 00:36:29;;;;;;;2.60;2.40;;;;;;;0.58;89.18;98273.50;6145278;22;103262;-75
2021/04/07 00:38:56;;;;;;;2.50;2.30;;;;;;;0.49;89.66;98283.41;6144295;22;102749;-76
2021/04/07 00:41:23;;;;;;;2.90;2.60;;;;;;;0.44;90.04;98299.19;6144894;22;102935;-76
2021/04/07 00:43:50;;;;;;;3.90;2.73;;;;;;;0.43;91.61;98289.69;6119643;22;103330;-75
2021/04/07 00:46:17;;;;;;;3.00;2.40;;;;;;;0.53;92.50;98288.41;6145164;22;103097;-77
2021/04/07 00:48:45;;;;;;;2.70;2.47;;;;;;;0.55;92.31;98293.56;6146186;22;102798;-75
2021/04/07 00:51:13;;;;;;;4.87;2.47;;;;;;;0.52;92.47;98294.53;6093686;22;103023;-75
2021/04/07 00:53:41;;;;;;;4.50;2.60;;;;;;;0.43;93.31;98305.28;6119422;22;103708;-75
2021/04/07 00:56:09;;;;;;;3.13;2.83;;;;;;;0.36;93.71;98303.84;6117954;22;106430;-75
2021/04/07 00:58:36;;;;;;;3.43;2.80;;;;;;;0.53;94.10;98300.59;6147046;22;102880;-75
2021/04/07 01:01:04;;;;;;;3.63;2.30;;;;;;;0.66;93.33;98301.81;6145098;22;102940;-76
2021/04/07 01:03:31;;;;;;;4.73;2.67;;;;;;;0.50;94.43;98301.56;6145557;22;103050;-75
2021/04/07 01:05:59;;;;;;;2.53;2.33;;;;;;;0.54;93.17;98297.91;6141962;22;103881;-76
2021/04/07 01:08:26;;;;;;;5.00;2.90;;;;;;;0.48;93.98;98303.34;6146760;22;102742;-75
2021/04/07 01:10:54;;;;;;;5.53;3.63;;;;;;;0.47;93.21;98306.03;6147314;22;103030;-76
2021/04/07 01:13:21;;;;;;;4.13;2.57;;;;;;;0.44;92.70;98304.38;6145370;22;103237;-75
2021/04/07 01:15:48;;;;;;;3.43;2.47;;;;;;;0.44;93.64;98295.75;6119630;22;103290;-75
2021/04/07 01:18:15;;;;;;;5.70;3.40;;;;;;;0.48;92.51;98305.94;6145830;22;102847;-75
2021/04/07 01:20:43;;;;;;;3.83;2.90;;;;;;;0.34;92.71;98305.63;6147964;22;103462;-75
2021/04/07 01:23:10;;;;;;;3.63;2.90;;;;;;;0.31;92.57;98308.34;6147609;22;103701;-75
2021/04/07 01:25:39;;;;;;;4.50;3.43;;;;;;;0.34;92.57;98300.44;6156805;22;102876;-76
2021/04/07 01:28:06;;;;;;;3.17;2.73;;;;;;;0.38;92.12;98312.41;6151412;22;103028;-75
2021/04/07 01:30:45;;;;;;;4.83;3.37;;;;;;;0.32;92.00;98307.44;6146718;22;102837;-74
2021/04/07 01:33:21;;;;;;;4.43;3.07;;;;;;;0.19;91.33;98308.81;6142003;22;103085;-76
2021/04/07 01:35:49;;;;;;;3.87;2.90;;;;;;;0.26;91.11;98312.00;6145871;22;103693;-74
2021/04/07 01:38:16;;;;;;;3.17;2.80;;;;;;;0.22;90.73;98303.50;6146113;22;102844;-75
2021/04/07 01:40:46;;;;;;;3.33;3.03;;;;;;;0.36;90.14;98309.03;6145845;22;102852;-75
2021/04/07 01:43:15;;;;;;;4.33;3.17;;;;;;;0.22;89.61;98308.69;6145932;22;103773;-75
2021/04/07 01:45:44;;;;;;;3.93;2.90;;;;;;;0.18;89.45;98314.03;6144758;22;105419;-75
2021/04/07 01:48:12;;;;;;;4.67;3.40;;;;;;;0.21;89.58;98307.00;6147130;22;102888;-75
2021/04/07 01:50:41;;;;;;;6.73;3.50;;;;;;;0.14;89.96;98313.31;6094184;22;102789;-76
2021/04/07 01:53:09;;;;;;;5.00;4.03;;;;;;;0.08;90.21;98307.50;6146478;22;104008;-75
2021/04/07 01:55:37;;;;;;;5.13;3.10;;;;;;;0.17;89.80;98320.16;6145805;22;105166;-77
2021/04/07 01:58:05;;;;;;;5.77;3.43;;;;;;;0.06;88.62;98322.31;6120460;22;102881;-76
2021/04/07 02:00:33;;;;;;;4.87;3.53;;;;;;;0.12;89.76;98319.47;6116603;22;102935;-76
2021/04/07 02:03:01;;;;;;;4.13;3.27;;;;;;;0.21;89.07;98322.59;6142282;22;104446;-77
2021/04/07 02:05:29;;;;;;;4.20;3.03;;;;;;;0.19;89.21;98323.56;6144537;22;104782;-76
2021/04/07 02:07:56;;;;;;;3.37;3.03;;;;;;;0.23;88.87;98325.97;6145966;22;102851;-75
2021/04/07 02:10:23;;;;;;;6.80;4.20;;;;;;;0.20;88.63;98328.66;6145997;22;103001;-75
2021/04/07 02:12:51;;;;;;;5.40;4.03;;;;;;;0.18;88.89;98329.63;6145371;22;107398;-75
2021/04/07 02:15:21;;;;;;;4.27;3.53;;;;;;;0.20;88.90;98336.47;6145575;22;103607;-75
2021/04/07 02:17:48;;;;;;;4.10;3.70;;;;;;;0.26;88.38;98336.25;6118612;22;102977;-76
2021/04/07 02:20:17;;;;;;;4.73;3.90;;;;;;;0.11;89.04;98336.81;6145762;22;102904;-76
2021/04/07 02:22:45;;;;;;;6.07;4.20;;;;;;;0.04;89.36;98339.69;6143833;22;104747;-75
2021/04/07 02:25:13;;;;;;;4.23;3.83;;;;;;;0.12;87.81;98351.50;6145270;22;104704;-76
2021/04/07 02:27:40;;;;;;;5.63;4.80;;;;;;;0.11;87.86;98347.22;6141330;22;103080;-76
2021/04/07 02:30:10;;;;;;;9.13;4.90;;;;;;;0.09;87.71;98349.00;6144228;22;103050;-75
2021/04/07 02:32:38;;;;;;;7.10;4.70;;;;;;;-0.02;87.73;98361.53;6143914;22;103806;-76
2021/04/07 02:35:07;;;;;;;5.53;4.47;;;;;;;0.09;88.53;98358.53;6117355;22;109454;-76
2021/04/07 02:37:34;;;;;;;7.00;4.83;;;;;;;0.09;87.29;98368.94;6144171;22;103170;-76
2021/04/07 02:40:01;;;;;;;4.80;3.83;;;;;;;0.09;87.26;98366.34;6145704;22;102898;-75
2021/04/07 02:42:31;;;;;;;7.70;4.57;;;;;;;0.03;88.11;98370.00;6144738;22;104688;-77
2021/04/07 02:44:59;;;;;;;4.97;4.10;;;;;;;0.05;87.58;98363.03;6144918;22;105326;-76
2021/04/07 02:47:26;;;;;;;6.83;4.70;;;;;;;0.04;87.42;98368.25;6146962;22;102992;-75
2021/04/07 02:49:54;;;;;;;4.37;3.97;;;;;;;0.04;87.51;98369.09;6145501;22;102946;-76
2021/04/07 02:52:21;;;;;;;5.97;4.50;;;;;;;0.07;87.53;98373.34;6144684;22;103014;-75
2021/04/07 02:54:48;;;;;;;7.70;4.97;;;;;;;0.00;86.77;98377.91;6142098;22;103824;-76
2021/04/07 02:57:15;;;;;;;8.33;4.67;;;;;;;0.10;87.24;98368.88;6143939;22;102814;-77
2021/04/07 02:59:43;;;;;;;4.53;3.97;;;;;;;0.12;87.25;98377.47;6143626;22;102837;-76
2021/04/07 03:02:10;;;;;;;7.33;4.80;;;;;;;0.18;87.56;98382.44;6142987;22;104167;-77
2021/04/07 03:04:37;;;;;;;5.23;4.67;;;;;;;0.21;87.32;98382.34;6117918;22;103332;-76
2021/04/07 03:07:05;;;;;;;5.53;4.63;;;;;;;0.25;86.82;98377.91;6144636;22;102943;-76
2021/04/07 03:09:32;;;;;;;5.50;4.40;;;;;;;0.19;87.05;98386.75;6119013;22;103112;-75
2021/04/07 03:11:59;;;;;;;4.67;4.17;;;;;;;0.19;87.14;98393.69;6117296;22;105275;-76
2021/04/07 03:14:26;;;;;;;5.33;4.33;;;;;;;0.20;86.54;98396.22;6118137;22;104456;-76
2021/04/07 03:16:53;;;;;;;5.00;3.83;;;;;;;0.32;86.65;98405.34;6117121;22;103023;-76
2021/04/07 03:19:20;;;;;;;5.70;3.70;;;;;;;0.36;86.04;98407.78;6144835;22;102915;-76
2021/04/07 03:21:47;;;;;;;5.83;3.90;;;;;;;0.26;86.33;98410.75;6141072;22;103766;-75
2021/04/07 03:24:15;;;;;;;3.87;3.47;;;;;;;0.25;85.98;98412.53;6143152;22;105154;-76
2021/04/07 03:26:43;;;;;;;6.27;3.67;;;;;;;0.38;85.37;98416.38;6143884;22;103047;-76
2021/04/07 03:29:10;;;;;;;4.83;3.50;;;;;;;0.36;85.31;98418.19;6143247;22;102741;-76
2021/04/07 03:31:37;;;;;;;4.57;3.70;;;;;;;0.42;85.15;98428.34;6116736;22;104448;-76
2021/04/07 03:34:04;;;;;;;5.00;4.07;;;;;;;0.43;85.36;98417.03;6143590;22;103726;-76
2021/04/07 03:36:31;;;;;;;3.73;3.20;;;;;;;0.57;85.19;98422.59;6117453;22;103367;-76
2021/04/07 03:38:58;;;;;;;4.07;3.30;;;;;;;0.47;85.54;98426.44;6143903;22;102608;-75
2021/04/07 03:41:26;;;;;;;7.10;3.80;;;;;;;0.47;85.21;98436.84;6143902;22;104262;-76
2021/04/07 03:43:53;;;;;;;4.33;3.57;;;;;;;0.51;84.37;98425.41;6143556;22;107499;-75
2021/04/07 03:46:20;;;;;;;5.63;3.83;;;;;;;0.43;85.23;98437.84;6144361;22;102971;-76
2021/04/07 03:48:47;;;;;;;5.03;3.93;;;;;;;0.48;84.91;98438.50;6141654;22;102995;-75
2021/04/07 03:51:14;;;;;;;6.87;3.60;;;;;;;0.48;85.19;98438.50;6142723;22;105054;-75
2021/04/07 03:53:41;;;;;;;6.60;3.70;;;;;;;0.48;84.94;98437.66;6143468;22;109438;-76
2021/04/07 03:56:08;;;;;;;3.73;3.20;;;;;;;0.43;85.36;98439.59;6143511;22;102956;-75
2021/04/07 03:58:36;;;;;;;5.47;3.33;;;;;;;0.46;84.57;98440.34;6142774;22;102904;-75
2021/04/07 04:01:05;;;;;;;3.30;3.00;;;;;;;0.39;84.64;98451.84;6142999;22;103206;-76
2021/04/07 04:03:32;;;;;;;4.70;3.00;;;;;;;0.34;85.33;98445.94;6142769;22;103663;-75
2021/04/07 04:05:59;;;;;;;3.77;2.93;;;;;;;0.51;84.49;98450.56;6119019;22;103059;-78
2021/04/07 04:08:26;;;;;;;5.17;3.23;;;;;;;0.51;84.66;98454.00;6123241;22;102613;-79
2021/04/07 04:11:00;;;;;;;4.40;3.30;;;;;;;0.55;84.22;98463.41;6122161;22;105242;-79
2021/04/07 04:13:28;;;;;;;3.67;3.37;;;;;;;0.37;83.40;98461.44;6122323;22;104746;-79
2021/04/07 04:15:56;;;;;;;4.87;3.30;;;;;;;0.49;84.21;98465.38;6150491;22;102323;-79
2021/04/07 04:18:24;;;;;;;3.23;2.93;;;;;;;0.48;84.49;98474.06;6149468;22;102514;-78
2021/04/07 04:20:51;;;;;;;4.87;2.90;;;;;;;0.51;83.66;98473.94;6148320;22;103803;-78
2021/04/07 04:23:18;;;;;;;4.30;2.97;;;;;;;0.46;83.82;98484.53;6149014;22;110557;-79
2021/04/07 04:25:46;;;;;;;3.60;2.70;;;;;;;0.54;83.66;98485.09;6148988;22;102732;-79
2021/04/07 04:28:13;;;;;;;3.20;2.30;;;;;;;0.55;83.40;98481.59;6122660;22;103011;-79
2021/04/07 04:30:40;;;;;;;3.23;2.80;;;;;;;0.56;83.55;98490.25;6121186;22;107261;-79
2021/04/07 04:33:08;;;;;;;5.20;3.00;;;;;;;0.45;83.58;98495.81;6147833;22;104361;-79
2021/04/07 04:35:35;;;;;;;2.77;2.57;;;;;;;0.47;83.61;98498.38;6122287;22;102746;-79
2021/04/07 04:38:02;;;;;;;3.60;2.90;;;;;;;0.51;83.41;98507.75;6148763;22;102792;-79
2021/04/07 04:40:29;;;;;;;4.57;2.53;;;;;;;0.57;83.01;98510.97;6148692;22;105015;-79
2021/04/07 04:42:56;;;;;;;3.37;2.90;;;;;;;0.63;83.64;98522.91;6149195;22;104763;-79
2021/04/07 04:45:23;;;;;;;4.53;2.90;;;;;;;0.62;83.14;98517.78;6149751;22;102415;-79
2021/04/07 04:47:51;;;;;;;3.80;3.20;;;;;;;0.57;82.56;98529.19;6148625;22;102870;-79
2021/04/07 04:50:19;;;;;;;3.83;2.60;;;;;;;0.53;82.05;98530.19;6147253;22;103876;-78
2021/04/07 04:52:47;;;;;;;3.60;2.90;;;;;;;0.65;82.17;98543.69;6120601;22;103248;-79
2021/04/07 04:55:15;;;;;;;3.40;2.67;;;;;;;0.68;82.27;98543.53;6120716;22;102651;-79
2021/04/07 04:57:42;;;;;;;3.67;2.40;;;;;;;0.56;83.04;98545.66;6147840;22;102873;-79
2021/04/07 05:00:10;;;;;;;3.60;2.50;;;;;;;0.58;82.74;98563.84;6147211;22;104858;-78
2021/04/07 05:02:45;;;;;;;4.90;2.90;;;;;;;0.53;82.37;98556.16;6093728;22;106109;-79
2021/04/07 05:05:13;;;;;;;3.77;2.77;;;;;;;0.50;81.34;98561.50;6147289;22;102494;-79
2021/04/07 05:07:41;;;;;;;4.53;2.87;;;;;;;0.57;82.00;98570.78;6147624;22;102892;-80
2021/04/07 05:10:09;;;;;;;3.67;2.50;;;;;;;0.64;81.07;98565.38;6147005;22;104990;-78
2021/04/07 05:12:37;;;;;;;3.03;2.30;;;;;;;0.53;81.40;98566.56;6147598;22;103606;-78
2021/04/07 05:15:05;;;;;;;3.87;2.57;;;;;;;0.53;80.59;98570.94;6120480;22;102897;-78
2021/04/07 05:17:36;;;;;;;4.00;2.53;;;;;;;0.57;80.80;98573.38;6120942;22;102639;-79
2021/04/07 05:20:05;;;;;;;3.57;2.40;;;;;;;0.63;81.09;98571.47;6149177;22;102494;-78
2021/04/07 05:22:32;;;;;;;2.53;2.33;;;;;;;0.65;81.04;98575.69;6150239;22;103695;-79
2021/04/07 05:25:00;;;;;;;5.43;2.57;;;;;;;0.65;80.52;98569.69;6124139;22;102500;-79
2021/04/07 05:27:27;;;;;;;3.73;2.47;;;;;;;0.50;81.32;98576.25;6147942;22;102888;-77
2021/04/07 05:29:54;;;;;;;4.07;2.90;;;;;;;0.53;80.76;98584.75;6122607;22;103888;-79
2021/04/07 05:32:21;;;;;;;3.70;2.37;;;;;;;0.56;80.46;98592.47;6151118;22;103025;-79
2021/04/07 05:34:49;;;;;;;4.80;2.53;;;;;;;0.72;80.05;98591.97;6150111;22;103031;-76
2021/04/07 05:37:16;;;;;;;4.03;2.80;;;;;;;0.72;80.41;98591.97;6147418;22;103079;-75
2021/04/07 05:39:43;;;;;;;3.43;2.43;;;;;;;0.68;81.05;98600.75;6118721;22;103845;-78
2021/04/07 05:42:11;;;;;;;3.50;2.30;;;;;;;0.70;81.06;98604.16;6147319;22;103111;-75
2021/04/07 05:44:38;;;;;;;3.43;2.67;;;;;;;0.74;79.91;98614.41;6148321;22;102824;-80
2021/04/07 05:47:05;;;;;;;4.17;2.70;;;;;;;0.80;79.30;98619.41;6122020;22;102723;-80
2021/04/07 05:49:32;;;;;;;2.87;2.60;;;;;;;0.86;78.37;98636.53;6148169;22;103715;-77
2021/04/07 05:51:59;;;;;;;3.30;2.67;;;;;;;0.86;79.55;98637.41;6147354;22;103108;-78
2021/04/07 05:54:27;;;;;;;3.77;2.87;;;;;;;0.65;79.41;98642.47;6143406;22;103009;-80
2021/04/07 05:56:54;;;;;;;3.53;2.90;;;;;;;0.70;79.53;98645.78;6146311;22;102547;-75
2021/04/07 05:59:22;;;;;;;7.97;3.00;;;;;;;0.79;78.71;98651.50;6118460;22;103392;-74
2021/04/07 06:01:49;;;;;;;5.00;3.10;;;;;;;0.77;78.49;98649.84;6145705;22;104659;-76
2021/04/07 06:04:16;;;;;;;2.83;2.40;;;;;;;0.74;78.34;98647.34;6144262;22;103006;-75
2021/04/07 06:06:43;;;;;;;4.73;2.60;;;;;;;0.77;78.21;98658.50;6145592;22;102823;-83
2021/04/07 06:09:10;;;;;;;3.47;2.37;;;;;;;0.88;77.26;98665.94;6145470;22;103273;-76
2021/04/07 06:11:37;;;;;;;3.97;2.33;;;;;;;1.01;77.69;98662.03;6145927;22;103217;-76
2021/04/07 06:14:04;;;;;;;7.57;2.97;;;;;;;1.00;76.55;98673.34;6145645;22;102710;-76
2021/04/07 06:16:32;;;;;;;5.60;2.57;;;;;;;0.94;78.32;98669.19;6146425;22;102841;-73
2021/04/07 06:19:00;;;;;;;3.40;2.50;;;;;;;0.85;78.19;98676.44;6145274;22;104732;-77
2021/04/07 06:21:27;;;;;;;4.30;2.50;;;;;;;1.04;77.04;98678.38;6146719;22;104838;-77
2021/04/07 06:23:54;;;;;;;3.77;2.80;;;;;;;1.12;76.96;98685.94;6147101;22;102478;-77
2021/04/07 06:26:21;;;;;;;3.13;2.70;;;;;;;1.30;76.18;98690.47;6145052;22;102974;-75
2021/04/07 06:28:49;;;;;;;8.13;3.00;;;;;;;1.45;75.70;98689.94;6144895;22;103813;-77
2021/04/07 06:31:16;;;;;;;4.20;2.87;;;;;;;1.31;75.81;98702.59;6143919;22;104215;-76
2021/04/07 06:33:44;;;;;;;3.80;2.30;;;;;;;1.58;75.50;98703.34;6146298;22;103144;-77
2021/04/07 06:36:12;;;;;;;5.57;2.80;;;;;;;1.40;75.20;98712.69;6118393;22;102700;-75
2021/04/07 06:38:39;;;;;;;5.07;2.87;;;;;;;1.15;75.95;98722.25;6145459;22;109015;-74
2021/04/07 06:41:09;;;;;;;6.20;2.70;;;;;;;1.34;76.12;98722.47;6146553;22;103283;-77
2021/04/07 06:43:41;;;;;;;4.37;3.03;;;;;;;1.26;75.44;98722.75;6147963;22;103056;-73
2021/04/07 06:46:11;;;;;;;4.53;2.50;;;;;;;1.24;75.39;98731.47;6146694;22;102888;-77
2021/04/07 06:48:39;;;;;;;5.13;2.50;;;;;;;1.26;75.48;98735.75;6145752;22;104451;-77
2021/04/07 06:51:08;;;;;;;4.13;2.80;;;;;;;1.28;74.53;98736.53;6145933;22;103786;-77
2021/04/07 06:53:37;;;;;;;4.27;2.13;;;;;;;1.50;74.55;98736.63;6119246;22;102997;-77
2021/04/07 06:56:08;;;;;;;4.73;2.10;;;;;;;1.38;74.70;98739.66;6146259;22;103055;-77
2021/04/07 06:58:35;;;;;;;5.77;2.50;;;;;;;1.31;74.92;98743.41;6142470;22;103098;-77
2021/04/07 07:01:02;;;;;;;6.20;3.00;;;;;;;1.43;76.10;98741.19;6143907;22;107418;-77
2021/04/07 07:03:29;;;;;;;3.53;2.17;;;;;;;1.45;74.71;98741.16;6145656;22;102705;-76
2021/04/07 07:05:59;;;;;;;4.13;2.30;;;;;;;1.53;75.33;98740.00;6103348;22;103088;-76
2021/04/07 07:08:43;;;;;;;5.57;2.60;;;;;;;1.79;72.29;98751.22;6115616;22;105574;-76
2021/04/07 07:11:12;;;;;;;5.83;2.70;;;;;;;1.95;73.45;98747.16;6142697;22;105185;-75
2021/04/07 07:13:40;;;;;;;4.90;2.37;;;;;;;1.74;73.51;98748.81;6145090;22;102942;-75
2021/04/07 07:16:10;;;;;;;3.77;2.10;;;;;;;1.68;72.34;98749.84;6119257;22;102957;-75
2021/04/07 07:18:43;;;;;;;5.63;2.30;;;;;;;1.59;73.26;98750.19;6117692;22;104980;-75
2021/04/07 07:21:17;;;;;;;4.23;2.63;;;;;;;1.59;71.79;98747.59;6117938;22;104910;-75
2021/04/07 07:23:47;;;;;;;2.40;1.80;;;;;;;1.72;73.00;98759.25;6145024;22;103012;-75
2021/04/07 07:26:16;;;;;;;4.63;2.17;;;;;;;1.63;72.25;98750.91;6142204;22;102513;-75
2021/04/07 07:28:46;;;;;;;4.60;2.00;;;;;;;1.74;71.69;98765.25;6142789;22;103592;-75
2021/04/07 07:31:22;;;;;;;5.03;1.83;;;;;;;1.48;71.61;98767.94;6117601;22;107562;-76
2021/04/07 07:33:49;;;;;;;3.33;1.73;;;;;;;1.81;72.00;98772.84;6145292;22;103044;-75
2021/04/07 07:36:16;;;;;;;4.37;1.80;;;;;;;1.98;69.85;98758.31;6144865;22;102872;-76
2021/04/07 09:06:13;;;;;;;2.53;2.10;;;;;;;3.63;68.25;98884.84;6132411;22;105617;-78
2021/04/07 09:08:52;;;;;;;3.93;2.33;;;;;;;3.62;71.00;98880.53;6169794;22;105599;-76
2021/04/07 09:11:27;;;;;;;5.07;2.30;;;;;;;3.56;71.51;98878.19;6146515;22;112227;-78
2021/04/07 09:13:59;;;;;;;4.23;2.50;;;;;;;3.10;70.36;98891.38;6173095;22;102772;-75
2021/04/07 09:16:32;;;;;;;4.67;2.63;;;;;;;3.41;70.61;98881.41;6174461;22;102816;-76
2021/04/07 09:19:19;;;;;;;3.93;2.17;;;;;;;3.46;70.12;98884.69;6173781;22;105040;-80
2021/04/07 09:22:00;;;;;;;2.77;2.20;;;;;;;3.18;71.02;98882.34;6123224;22;107256;-75
2021/04/07 09:24:37;;;;;;;3.00;2.27;;;;;;;3.49;70.76;98882.81;6174935;22;102417;-75
2021/04/07 09:27:05;;;;;;;6.90;2.60;;;;;;;3.59;69.24;98880.69;6175365;22;103611;-76
2021/04/07 09:29:38;;;;;;;3.60;2.20;;;;;;;3.46;69.28;98872.47;6147015;22;106656;-75
2021/04/07 09:32:15;;;;;;;2.50;2.30;;;;;;;3.69;67.65;98870.66;6147947;22;105092;-75
2021/04/07 09:34:42;;;;;;;3.87;2.23;;;;;;;3.41;67.85;98881.41;6175038;22;102640;-76
2021/04/07 09:37:12;;;;;;;3.67;2.50;;;;;;;3.50;66.93;98875.81;6173431;22;104312;-80
2021/04/07 09:39:40;;;;;;;8.63;2.90;;;;;;;3.94;64.81;98872.19;6174551;22;103280;-77
2021/04/07 09:42:09;;;;;;;4.77;2.70;;;;;;;4.22;64.73;98868.38;6175458;22;104012;-75
2021/04/07 09:44:36;;;;;;;5.37;2.43;;;;;;;4.01;63.96;98870.16;6174431;22;102922;-75
2021/04/07 09:47:05;;;;;;;4.20;2.80;;;;;;;4.33;62.68;98873.97;6172274;22;103134;-78
2021/04/07 09:49:33;;;;;;;2.77;2.50;;;;;;;4.31;65.22;98873.19;6171887;22;105556;-75
2021/04/07 09:52:01;;;;;;;2.87;2.10;;;;;;;4.68;62.80;98879.34;6144729;22;105295;-73
2021/04/07 09:54:31;;;;;;;4.13;1.80;;;;;;;5.52;62.71;98877.94;6172444;22;102924;-73
2021/04/07 09:57:00;;;;;;;2.90;2.17;;;;;;;5.13;61.59;98868.50;6172137;22;103154;-72
2021/04/07 09:59:33;;;;;;;2.57;2.20;;;;;;;5.69;60.91;98880.59;6141445;22;103682;-75
2021/04/07 10:02:01;;;;;;;3.67;2.63;;;;;;;5.00;59.94;98877.81;6172373;22;103671;-75
2021/04/07 10:04:29;;;;;;;4.87;2.60;;;;;;;5.64;59.47;98885.22;6145338;22;103142;-73
2021/04/07 10:07:07;;;;;;;3.50;2.27;;;;;;;5.49;58.29;98883.34;6169980;22;104668;-73
2021/04/07 10:09:36;;;;;;;4.13;2.33;;;;;;;5.78;58.92;98882.75;6144307;22;106297;-74
2021/04/07 10:12:06;;;;;;;3.37;1.63;;;;;;;5.76;59.55;98898.56;6172559;22;103584;-73
2021/04/07 10:14:33;;;;;;;4.37;2.00;;;;;;;5.03;59.69;98885.53;6172822;22;103155;-72
2021/04/07 10:17:12;;;;;;;4.53;2.27;;;;;;;4.84;60.72;98904.78;6145522;22;103305;-74
2021/04/07 10:19:39;;;;;;;3.77;2.07;;;;;;;4.60;62.73;98901.53;6144759;22;112010;-73
2021/04/07 10:22:14;;;;;;;4.97;2.87;;;;;;;4.22;62.05;98897.13;6172159;22;104411;-73
2021/04/07 10:24:43;;;;;;;3.80;2.20;;;;;;;4.78;62.94;98890.22;6172554;22;103154;-75
2021/04/07 10:27:17;;;;;;;3.57;2.00;;;;;;;4.64;62.38;98903.09;6172995;22;103321;-75
2021/04/07 10:29:44;;;;;;;6.07;1.97;;;;;;;5.01;61.43;98903.09;6171734;22;103489;-76
2021/04/07 10:32:15;;;;;;;3.40;2.10;;;;;;;4.68;61.69;98909.88;6172196;22;105574;-77
2021/04/07 10:34:43;;;;;;;2.97;1.90;;;;;;;4.64;61.25;98913.56;6144436;22;103140;-78
2021/04/07 10:37:11;;;;;;;3.43;2.10;;;;;;;4.64;61.90;98910.94;6145532;22;102716;-74
2021/04/07 10:39:41;;;;;;;3.13;2.07;;;;;;;5.20;61.00;98909.16;6145093;22;103830;-82
2021/04/07 10:42:15;;;;;;;3.23;2.23;;;;;;;4.81;61.93;98911.03;6145343;22;104543;-85
2021/04/07 10:44:44;;;;;;;3.90;2.13;;;;;;;4.80;60.68;98909.31;6172912;22;103147;-83
2021/04/07 10:47:15;;;;;;;3.17;1.90;;;;;;;5.03;60.70;98906.50;6172087;22;103197;-87
2021/04/07 10:49:56;;;;;;;6.23;2.40;;;;;;;5.16;59.51;98905.00;6177675;22;104765;-87
2021/04/07 10:52:32;;;;;;;3.63;1.67;;;;;;;4.94;59.19;98906.91;6182890;22;104488;-83
2021/04/07 10:55:00;;;;;;;4.67;2.10;;;;;;;4.89;59.04;98903.66;6173268;22;102463;-84
2021/04/07 10:57:36;;;;;;;3.27;1.67;;;;;;;5.16;58.93;98885.81;6172714;22;102968;-84
2021/04/07 11:00:08;;;;;;;3.90;1.60;;;;;;;5.32;56.81;98893.78;6174217;22;104042;-78
2021/04/07 11:02:43;;;;;;;3.67;1.63;;;;;;;5.44;57.27;98888.81;6162932;22;103274;-89
2021/04/07 11:05:17;;;;;;;6.63;2.10;;;;;;;5.71;58.22;98899.72;6148240;22;102916;-85
2021/04/07 11:07:45;;;;;;;2.93;1.80;;;;;;;5.56;56.70;98890.81;6144188;22;102474;-79
2021/04/07 11:10:14;;;;;;;3.50;2.10;;;;;;;5.66;56.47;98897.31;6113480;22;104738;-82
2021/04/07 11:12:44;;;;;;;4.63;1.80;;;;;;;6.12;56.45;98900.31;6144375;22;104058;-82
2021/04/07 11:15:13;;;;;;;3.27;1.87;;;;;;;5.99;55.72;98893.97;6142902;22;102976;-85
2021/04/07 11:17:51;;;;;;;3.20;1.70;;;;;;;6.40;54.76;98892.66;6114869;22;104564;-85
2021/04/07 11:20:18;;;;;;;5.90;2.10;;;;;;;6.15;54.60;98885.22;6132441;22;104465;-84
2021/04/07 11:22:45;;;;;;;5.27;2.00;;;;;;;6.04;54.59;98892.78;6106253;22;105514;-84
2021/04/07 11:25:13;;;;;;;4.23;2.00;;;;;;;6.02;55.32;98889.41;6109007;22;104513;-83
2021/04/07 11:27:42;;;;;;;3.27;2.00;;;;;;;6.43;54.92;98883.81;6123154;22;103192;-85
2021/04/07 11:30:11;;;;;;;4.30;1.80;;;;;;;6.67;53.74;98883.34;6110360;22;103998;-85
2021/04/07 11:32:39;;;;;;;5.50;1.87;;;;;;;6.48;53.12;98894.91;6086214;22;106361;-85
2021/04/07 11:35:28;;;;;;;4.43;1.70;;;;;;;7.29;52.02;98877.28;6086454;22;103392;-86
2021/04/07 11:37:58;;;;;;;4.97;1.90;;;;;;;6.47;50.52;98880.09;6138354;22;102904;-85
2021/04/07 11:40:47;;;;;;;4.20;1.60;;;;;;;6.91;51.00;98891.66;6137779;22;104773;-85
2021/04/07 11:43:19;;;;;;;2.87;1.47;;;;;;;6.76;49.26;98903.03;6137775;22;103019;-85
2021/04/07 11:45:46;;;;;;;2.83;1.80;;;;;;;6.84;48.82;98890.31;6122613;22;102829;-85
2021/04/07 11:48:25;;;;;;;3.93;1.77;;;;;;;6.70;50.06;98882.34;6110683;22;104506;-86
2021/04/07 11:50:53;;;;;;;3.90;1.60;;;;;;;6.98;49.85;98885.16;6134718;22;103504;-85
2021/04/07 11:53:20;;;;;;;4.27;1.70;;;;;;;6.63;49.50;98896.72;6108885;22;106750;-85
2021/04/07 11:55:48;;;;;;;1.80;1.47;;;;;;;6.79;49.04;98897.59;6109501;22;103162;-84
2021/04/07 11:58:15;;;;;;;2.43;1.50;;;;;;;6.85;50.82;98892.84;6109844;22;103243;-82
2021/04/07 12:00:43;;;;;;;4.10;1.93;;;;;;;6.27;49.39;98895.09;6110136;22;109964;-79
2021/04/07 12:03:14;;;;;;;2.57;1.30;;;;;;;6.18;50.77;98895.56;6144022;22;103780;-84
2021/04/07 12:05:45;;;;;;;5.33;1.60;;;;;;;5.90;51.50;98905.75;6149170;22;102954;-82
2021/04/07 12:08:12;;;;;;;4.90;1.60;;;;;;;5.78;52.37;98916.84;6174600;22;102582;-84
2021/04/07 12:10:41;;;;;;;4.10;1.60;;;;;;;5.54;53.29;98918.88;6173858;22;104359;-80
2021/04/07 12:13:09;;;;;;;5.60;1.70;;;;;;;5.47;53.21;98914.03;6173964;22;104341;-85
2021/04/07 12:15:38;;;;;;;4.17;1.80;;;;;;;5.90;53.24;98921.50;6162053;22;103158;-81
2021/04/07 12:18:07;;;;;;;2.47;1.40;;;;;;;5.87;53.80;98924.25;6172654;22;102896;-81
2021/04/07 12:20:34;;;;;;;2.50;1.70;;;;;;;5.92;54.09;98924.06;6173916;22;103722;-78
2021/04/07 12:23:06;;;;;;;5.60;1.87;;;;;;;5.79;54.56;98926.38;6174600;22;104759;-76
2021/04/07 12:25:33;;;;;;;6.17;1.87;;;;;;;5.89;55.49;98930.31;6174355;22;102520;-87
2021/04/07 12:28:00;;;;;;;5.43;2.03;;;;;;;6.19;55.31;98934.00;6148281;22;103074;-74
2021/04/07 12:30:28;;;;;;;3.27;1.50;;;;;;;6.22;55.62;98928.59;6173818;22;104761;-75
2021/04/07 12:32:57;;;;;;;2.43;1.70;;;;;;;6.18;57.23;98942.78;6174118;22;105857;-81
2021/04/07 12:35:25;;;;;;;4.13;1.87;;;;;;;6.66;56.19;98933.31;6173510;22;102588;-80
2021/04/07 12:37:52;;;;;;;4.60;1.87;;;;;;;6.58;55.98;98932.88;6174914;22;102851;-79
2021/04/07 12:40:20;;;;;;;4.17;1.63;;;;;;;6.38;55.57;98923.41;6173323;22;103871;-79
2021/04/07 12:42:47;;;;;;;3.30;1.70;;;;;;;6.40;56.50;98935.50;6173978;22;110093;-78
2021/04/07 12:45:15;;;;;;;7.13;1.80;;;;;;;5.81;57.58;98935.06;6145344;22;102996;-78
2021/04/07 12:47:45;;;;;;;3.17;1.63;;;;;;;6.25;56.25;98941.56;6174911;22;103205;-76
2021/04/07 12:50:14;;;;;;;4.67;2.00;;;;;;;6.42;56.18;98945.94;6171478;22;110023;-83
2021/04/07 12:52:42;;;;;;;6.03;1.80;;;;;;;6.17;56.45;98937.63;6174377;22;103541;-85
2021/04/07 12:55:47;;;;;;;4.57;1.70;;;;;;;6.27;55.98;98942.31;6175042;22;103058;-85
2021/04/07 12:58:33;;;;;;;3.93;1.47;;;;;;;5.63;57.60;98960.38;6173187;22;104682;-87
2021/04/07 13:01:02;;;;;;;7.17;1.90;;;;;;;5.96;58.42;98971.03;6147678;22;103084;-82
2021/04/07 13:03:29;;;;;;;2.93;1.60;;;;;;;5.41;58.50;98953.63;6146784;22;105902;-85
2021/04/07 13:05:56;;;;;;;3.17;1.80;;;;;;;5.35;60.38;98954.75;6141660;22;103038;-85
2021/04/07 13:08:25;;;;;;;3.80;1.87;;;;;;;5.05;61.12;98949.16;6144399;22;103086;-84
2021/04/07 13:10:52;;;;;;;2.73;1.77;;;;;;;5.13;61.83;98952.31;6174023;22;104155;-76